Time;durP1;ratioP1;P1;durP2;ratioP2;P2;SDS_P1;SDS_P2;PMS_P1;PMS_P2;Temp;Humidity;BMP_temperature;BMP_pressure;BME280_temperature;BME280_humidity;BME280_pressure;Samples;Min_cycle;Max_cycle;Signal;HPM_P1;HPM_P2
2023/10/28 00:00:38;;;;;;;1.38;0.82;;;12.60;96.70;;;;;;5112650;28;20103;-70
2023/10/28 00:03:05;;;;;;;3.28;1.00;;;12.50;96.70;;;;;;5112867;28;20380;-70
2023/10/28 00:05:31;;;;;;;1.85;0.90;;;12.50;96.80;;;;;;5112536;28;20028;-69
2023/10/28 00:07:57;;;;;;;3.28;0.98;;;12.50;96.90;;;;;;5126186;28;20026;-69
2023/10/28 00:10:23;;;;;;;3.22;1.13;;;12.50;97.00;;;;;;5133013;28;20052;-70
2023/10/28 00:12:50;;;;;;;1.23;0.70;;;12.40;97.00;;;;;;5133178;28;20029;-70
2023/10/28 00:15:18;;;;;;;3.10;0.95;;;12.40;97.20;;;;;;5133312;28;20027;-69
2023/10/28 00:17:47;;;;;;;1.23;0.85;;;12.40;97.30;;;;;;5133231;28;20087;-68
2023/10/28 00:20:13;;;;;;;3.17;1.00;;;12.40;97.30;;;;;;5115072;28;20062;-69
2023/10/28 00:22:39;;;;;;;1.13;0.75;;;12.40;97.30;;;;;;5132641;28;20030;-69
2023/10/28 00:25:05;;;;;;;1.40;0.70;;;12.40;97.30;;;;;;5133374;28;20038;-69
2023/10/28 00:27:33;;;;;;;1.55;0.80;;;12.40;97.30;;;;;;5114256;28;20023;-69
2023/10/28 00:30:01;;;;;;;0.70;0.65;;;12.40;97.30;;;;;;5133510;27;20027;-69
2023/10/28 00:32:27;;;;;;;2.95;0.93;;;12.40;97.10;;;;;;5136553;27;20080;-70
2023/10/28 00:34:52;;;;;;;1.20;0.80;;;12.40;97.10;;;;;;5137233;27;20033;-69
2023/10/28 00:37:18;;;;;;;5.70;0.90;;;12.40;97.00;;;;;;5119035;27;20114;-69
2023/10/28 00:39:44;;;;;;;2.55;0.90;;;12.40;97.00;;;;;;5136630;27;20213;-69
2023/10/28 00:42:17;;;;;;;2.42;1.10;;;12.40;96.90;;;;;;5137191;27;20030;-69
2023/10/28 00:44:43;;;;;;;1.42;1.10;;;12.40;96.80;;;;;;5136848;27;20074;-69
2023/10/28 00:47:09;;;;;;;1.20;0.90;;;12.40;96.70;;;;;;5136891;27;20031;-69
2023/10/28 00:49:36;;;;;;;1.80;0.90;;;12.50;96.70;;;;;;5136988;27;20039;-70
2023/10/28 00:52:01;;;;;;;1.90;0.85;;;12.50;96.70;;;;;;5136933;27;20031;-69
2023/10/28 00:54:28;;;;;;;1.25;0.80;;;12.50;96.60;;;;;;5136293;27;20076;-69
2023/10/28 00:56:56;;;;;;;2.35;0.73;;;12.50;96.60;;;;;;5136362;27;20526;-69
2023/10/28 00:59:22;;;;;;;1.67;0.55;;;12.40;96.40;;;;;;5136617;27;20452;-70
2023/10/28 01:01:48;;;;;;;1.80;0.73;;;12.40;96.40;;;;;;5136668;27;20055;-69
2023/10/28 01:04:13;;;;;;;3.60;0.80;;;12.40;96.50;;;;;;5136777;27;20030;-69
2023/10/28 01:06:39;;;;;;;1.60;0.80;;;12.40;96.50;;;;;;5136109;27;20023;-69
2023/10/28 01:09:05;;;;;;;1.40;0.75;;;12.40;96.50;;;;;;5132873;27;20085;-70
2023/10/28 01:11:31;;;;;;;1.15;0.68;;;12.40;96.30;;;;;;5135949;27;20015;-70
2023/10/28 01:13:56;;;;;;;1.10;0.80;;;12.40;96.20;;;;;;5136666;27;20023;-69
2023/10/28 01:16:22;;;;;;;1.20;0.70;;;12.40;96.10;;;;;;5117915;27;20077;-77
2023/10/28 01:18:57;;;;;;;1.83;0.80;;;12.40;96.10;;;;;;5136618;27;20038;-69
2023/10/28 01:21:23;;;;;;;1.35;0.70;;;12.40;96.20;;;;;;5136325;27;20084;-73
2023/10/28 01:23:49;;;;;;;2.47;0.90;;;12.30;96.20;;;;;;5136395;27;20031;-69
2023/10/28 01:26:15;;;;;;;1.83;0.85;;;12.30;96.30;;;;;;5136713;27;20037;-69
2023/10/28 01:28:40;;;;;;;1.23;0.70;;;12.30;96.20;;;;;;5135668;27;20054;-70
2023/10/28 01:31:08;;;;;;;0.80;0.70;;;12.30;96.20;;;;;;5136278;27;20448;-69
2023/10/28 01:33:33;;;;;;;2.47;0.80;;;12.30;96.20;;;;;;5135835;27;20193;-70
2023/10/28 01:35:59;;;;;;;1.25;0.77;;;12.30;96.20;;;;;;5136178;27;20058;-70
2023/10/28 01:38:26;;;;;;;1.88;0.80;;;12.30;96.10;;;;;;5135386;27;20054;-70
2023/10/28 01:40:52;;;;;;;1.70;0.88;;;12.30;96.10;;;;;;5135738;27;20031;-69
2023/10/28 01:43:19;;;;;;;1.08;0.70;;;12.30;96.10;;;;;;5135982;27;20079;-70
2023/10/28 01:45:45;;;;;;;3.50;0.77;;;12.20;96.10;;;;;;5135383;27;20114;-68
2023/10/28 01:48:11;;;;;;;1.42;0.70;;;12.30;96.20;;;;;;5135872;27;20485;-70
2023/10/28 01:50:37;;;;;;;3.13;0.80;;;12.20;96.20;;;;;;5135125;27;20110;-69
2023/10/28 01:53:03;;;;;;;2.75;0.90;;;12.20;96.20;;;;;;5135718;27;20102;-69
2023/10/28 01:55:29;;;;;;;1.00;0.80;;;12.20;96.20;;;;;;5135435;27;20051;-69
2023/10/28 01:57:55;;;;;;;2.47;1.00;;;12.20;96.20;;;;;;5136018;27;20051;-68
2023/10/28 02:00:22;;;;;;;3.13;1.02;;;12.10;96.30;;;;;;5135660;27;20031;-68
2023/10/28 02:02:48;;;;;;;1.30;0.80;;;12.10;96.30;;;;;;5134962;27;20208;-69
2023/10/28 02:05:15;;;;;;;1.30;1.00;;;12.10;96.40;;;;;;5117034;27;20522;-68
2023/10/28 02:07:40;;;;;;;1.52;0.90;;;12.10;96.50;;;;;;5134921;27;20102;-69
2023/10/28 02:10:06;;;;;;;4.22;1.20;;;12.10;96.60;;;;;;5135211;27;20102;-68
2023/10/28 02:12:34;;;;;;;1.10;0.80;;;12.10;96.60;;;;;;5135047;27;20023;-69
2023/10/28 02:15:09;;;;;;;5.05;1.00;;;12.10;96.60;;;;;;5135392;27;20394;-70
2023/10/28 02:17:36;;;;;;;2.30;1.33;;;12.10;96.70;;;;;;5134615;27;20105;-70
2023/10/28 02:20:03;;;;;;;2.80;0.90;;;12.00;96.80;;;;;;5135235;27;20030;-68
2023/10/28 02:22:31;;;;;;;3.58;1.10;;;12.00;96.90;;;;;;5134209;27;20034;-71
2023/10/28 02:24:57;;;;;;;1.70;0.90;;;12.00;97.00;;;;;;5135149;27;20031;-69
2023/10/28 02:27:23;;;;;;;3.20;1.00;;;12.00;97.10;;;;;;5134965;27;20026;-69
2023/10/28 02:29:49;;;;;;;1.13;0.70;;;12.00;97.10;;;;;;5134636;27;20022;-68
2023/10/28 02:32:15;;;;;;;1.48;0.85;;;12.00;97.50;;;;;;5134845;27;20031;-69
2023/10/28 02:34:43;;;;;;;1.20;0.80;;;11.90;97.40;;;;;;5134649;27;20460;-68
2023/10/28 02:37:10;;;;;;;1.20;0.65;;;11.90;97.50;;;;;;5134783;27;20030;-69
2023/10/28 02:39:37;;;;;;;1.50;0.90;;;11.90;97.50;;;;;;5134657;27;20035;-69
2023/10/28 02:42:03;;;;;;;3.67;0.98;;;11.90;97.60;;;;;;5135515;27;20027;-68
2023/10/28 02:44:32;;;;;;;1.58;0.80;;;11.90;97.60;;;;;;5134452;27;20080;-77
2023/10/28 02:46:58;;;;;;;1.10;0.90;;;11.80;97.60;;;;;;5134479;27;20038;-68
2023/10/28 02:49:24;;;;;;;3.28;1.25;;;11.80;97.70;;;;;;5134531;27;20034;-69
2023/10/28 02:51:49;;;;;;;5.00;1.10;;;11.80;97.80;;;;;;5134256;27;20019;-70
2023/10/28 02:54:15;;;;;;;2.05;0.80;;;11.70;97.90;;;;;;5134224;27;20357;-68
2023/10/28 02:56:40;;;;;;;3.65;1.13;;;11.70;98.00;;;;;;5134222;27;20089;-69
2023/10/28 02:59:07;;;;;;;0.77;0.68;;;11.70;98.30;;;;;;5134672;27;20023;-70
2023/10/28 03:01:36;;;;;;;3.47;1.00;;;11.70;98.50;;;;;;5133948;27;20027;-70
2023/10/28 03:04:03;;;;;;;1.55;0.77;;;11.60;98.90;;;;;;5134096;27;20031;-69
2023/10/28 03:06:28;;;;;;;0.95;0.70;;;11.60;99.20;;;;;;5134184;27;20032;-69
2023/10/28 03:08:54;;;;;;;1.23;0.80;;;11.60;99.30;;;;;;5133643;27;20383;-69
2023/10/28 03:11:20;;;;;;;3.22;1.20;;;11.60;99.40;;;;;;5131089;27;20027;-69
2023/10/28 03:13:46;;;;;;;2.15;1.08;;;11.60;99.50;;;;;;5133709;27;20089;-69
2023/10/28 03:16:12;;;;;;;1.67;0.93;;;11.60;99.60;;;;;;5115856;27;20023;-69
2023/10/28 03:18:38;;;;;;;3.25;1.20;;;11.60;99.80;;;;;;5133809;27;20034;-70
2023/10/28 03:21:04;;;;;;;2.30;0.95;;;11.60;99.90;;;;;;5134129;27;20386;-69
2023/10/28 03:23:30;;;;;;;4.50;0.80;;;11.50;99.90;;;;;;5133794;27;20494;-70
2023/10/28 03:25:56;;;;;;;1.73;0.90;;;11.50;99.90;;;;;;5133814;27;20054;-69
2023/10/28 03:28:21;;;;;;;2.72;1.27;;;11.50;99.90;;;;;;5134052;27;20046;-69
2023/10/28 03:30:47;;;;;;;2.45;0.90;;;11.40;99.90;;;;;;5133675;27;20023;-69
2023/10/28 03:33:13;;;;;;;1.52;1.08;;;11.40;99.90;;;;;;5134000;27;20027;-70
2023/10/28 03:35:38;;;;;;;2.63;1.05;;;11.40;99.90;;;;;;5133221;27;20031;-68
2023/10/28 03:38:04;;;;;;;1.95;0.98;;;11.40;99.90;;;;;;5134252;27;20035;-68
2023/10/28 03:40:30;;;;;;;3.90;1.00;;;11.40;99.90;;;;;;5133778;27;20102;-68
2023/10/28 03:42:55;;;;;;;3.60;1.10;;;11.40;99.90;;;;;;5133196;27;20031;-68
2023/10/28 03:45:21;;;;;;;2.15;0.98;;;11.30;99.90;;;;;;5133696;27;20050;-68
2023/10/28 03:47:46;;;;;;;1.75;1.02;;;11.30;99.90;;;;;;5133217;27;20345;-69
2023/10/28 03:50:12;;;;;;;1.20;0.90;;;11.30;99.90;;;;;;5133696;27;20070;-69
2023/10/28 03:52:38;;;;;;;3.25;1.10;;;11.30;99.90;;;;;;5133324;27;20027;-68
2023/10/28 03:55:04;;;;;;;3.03;1.20;;;11.30;99.90;;;;;;5133421;27;20127;-68
2023/10/28 03:57:30;;;;;;;2.10;1.00;;;11.30;99.90;;;;;;5114844;27;20423;-68
2023/10/28 03:59:57;;;;;;;1.67;0.90;;;11.30;99.90;;;;;;5133360;27;20019;-68
2023/10/28 04:02:23;;;;;;;1.40;0.85;;;11.20;99.90;;;;;;5133460;28;20053;-69
2023/10/28 04:04:49;;;;;;;1.30;0.90;;;11.20;99.90;;;;;;5136549;27;20110;-69
2023/10/28 04:07:14;;;;;;;1.40;0.80;;;11.20;99.90;;;;;;5139977;27;20027;-69
2023/10/28 04:09:40;;;;;;;4.10;1.00;;;11.20;99.90;;;;;;5139782;27;20390;-69
2023/10/28 04:12:06;;;;;;;2.97;1.10;;;11.20;99.90;;;;;;5140751;27;20030;-68
2023/10/28 04:14:35;;;;;;;2.20;1.10;;;11.20;99.90;;;;;;5140222;27;20027;-68
2023/10/28 04:17:03;;;;;;;1.73;1.00;;;11.20;99.90;;;;;;5139713;27;20050;-68
2023/10/28 04:19:29;;;;;;;2.55;1.13;;;11.20;99.90;;;;;;5140462;27;20030;-68
2023/10/28 04:21:55;;;;;;;3.00;1.33;;;11.20;99.90;;;;;;5139917;27;20402;-68
2023/10/28 04:24:22;;;;;;;3.30;1.20;;;11.20;99.90;;;;;;5140019;27;20110;-67
2023/10/28 04:26:47;;;;;;;2.17;1.23;;;11.20;99.90;;;;;;5121484;27;20452;-68
2023/10/28 04:29:13;;;;;;;3.38;1.45;;;11.20;99.90;;;;;;5121828;27;20054;-68
2023/10/28 04:31:39;;;;;;;5.78;1.30;;;11.10;99.90;;;;;;5139527;27;20106;-69
2023/10/28 04:34:05;;;;;;;2.03;1.13;;;11.10;99.90;;;;;;5139751;27;20027;-68
2023/10/28 04:36:31;;;;;;;2.55;1.40;;;11.10;99.90;;;;;;5139973;27;20031;-68
2023/10/28 04:38:57;;;;;;;3.13;1.20;;;11.10;99.90;;;;;;5139442;27;20046;-70
2023/10/28 04:41:22;;;;;;;3.67;1.70;;;11.10;99.90;;;;;;5139841;27;20065;-70
2023/10/28 04:43:48;;;;;;;2.75;1.55;;;11.10;99.90;;;;;;5139667;27;20030;-67
2023/10/28 04:46:15;;;;;;;3.90;1.40;;;11.10;99.90;;;;;;5140076;27;20440;-68
2023/10/28 04:48:46;;;;;;;2.92;1.50;;;11.10;99.90;;;;;;5139606;27;20168;-68
2023/10/28 04:51:12;;;;;;;3.75;1.60;;;11.10;99.90;;;;;;5140093;27;20110;-68
2023/10/28 04:53:38;;;;;;;3.85;1.30;;;11.00;99.90;;;;;;5139465;27;20041;-70
2023/10/28 04:56:08;;;;;;;3.08;1.35;;;11.10;99.90;;;;;;5121360;27;20122;-68
2023/10/28 04:58:34;;;;;;;1.98;1.33;;;11.10;99.90;;;;;;5140137;27;20471;-68
2023/10/28 05:00:59;;;;;;;3.13;1.25;;;11.10;99.90;;;;;;5139594;27;20026;-69
2023/10/28 05:03:25;;;;;;;2.05;1.23;;;11.10;99.90;;;;;;5139549;27;20083;-70
2023/10/28 05:05:50;;;;;;;1.63;0.93;;;11.10;99.90;;;;;;5137855;27;20502;-70
2023/10/28 05:08:16;;;;;;;1.42;1.08;;;11.10;99.90;;;;;;5121452;27;20020;-68
2023/10/28 05:10:42;;;;;;;2.38;0.85;;;11.10;99.90;;;;;;5118627;28;20069;-68
2023/10/28 05:13:10;;;;;;;4.78;0.80;;;11.10;99.90;;;;;;5119208;28;20461;-69
2023/10/28 05:15:36;;;;;;;1.38;0.77;;;11.10;99.90;;;;;;5118037;28;20043;-68
2023/10/28 05:18:02;;;;;;;1.85;0.82;;;11.00;99.90;;;;;;5114965;28;20043;-68
2023/10/28 05:20:28;;;;;;;4.82;0.88;;;11.00;99.90;;;;;;5115776;28;20507;-68
2023/10/28 05:22:53;;;;;;;1.27;0.85;;;10.90;99.90;;;;;;5115679;28;20118;-69
2023/10/28 05:25:19;;;;;;;3.15;0.93;;;11.00;99.90;;;;;;5115622;28;20110;-69
2023/10/28 05:27:44;;;;;;;2.53;0.82;;;10.90;99.90;;;;;;5115231;28;20532;-69
2023/10/28 05:30:11;;;;;;;0.65;0.50;;;10.90;99.90;;;;;;5115551;28;20023;-69
2023/10/28 05:32:37;;;;;;;0.60;0.60;;;11.00;99.90;;;;;;5115487;28;20104;-69
2023/10/28 05:35:03;;;;;;;2.65;0.80;;;11.00;99.90;;;;;;5114801;28;20492;-69
2023/10/28 05:37:28;;;;;;;1.42;0.80;;;11.00;99.90;;;;;;5115215;28;20127;-68
2023/10/28 05:39:56;;;;;;;1.35;0.75;;;11.10;99.90;;;;;;5114377;28;20027;-69
2023/10/28 05:42:23;;;;;;;0.80;0.75;;;11.10;99.90;;;;;;5114898;28;20032;-69
2023/10/28 05:44:49;;;;;;;2.05;1.20;;;11.10;99.90;;;;;;5114490;28;20038;-70
2023/10/28 05:47:16;;;;;;;1.30;0.82;;;11.20;99.90;;;;;;5115163;28;20102;-69
2023/10/28 05:49:42;;;;;;;1.60;0.90;;;11.20;99.90;;;;;;5114790;28;20026;-76
2023/10/28 05:52:09;;;;;;;1.20;0.90;;;11.30;99.90;;;;;;5115073;28;20028;-68
2023/10/28 05:54:35;;;;;;;3.90;1.15;;;11.30;99.90;;;;;;5096579;28;20031;-69
2023/10/28 05:57:00;;;;;;;2.15;0.80;;;11.40;99.90;;;;;;5114400;28;20093;-69
2023/10/28 05:59:26;;;;;;;1.13;0.73;;;11.50;99.90;;;;;;5096649;28;20464;-69
2023/10/28 06:01:51;;;;;;;1.95;0.70;;;11.50;99.90;;;;;;5114231;28;20438;-70
2023/10/28 06:04:21;;;;;;;1.48;0.70;;;11.60;99.90;;;;;;5114341;28;20072;-69
2023/10/28 06:06:47;;;;;;;0.77;0.57;;;11.60;99.90;;;;;;5133242;27;20027;-70
2023/10/28 06:09:13;;;;;;;1.38;0.70;;;11.60;99.90;;;;;;5135285;27;20019;-69
2023/10/28 06:11:39;;;;;;;1.27;0.70;;;11.70;99.90;;;;;;5116533;27;20207;-69
2023/10/28 06:14:05;;;;;;;1.00;0.60;;;11.70;99.90;;;;;;5134609;27;20059;-69
2023/10/28 06:16:31;;;;;;;0.77;0.60;;;11.80;99.80;;;;;;5135287;27;20450;-69
2023/10/28 06:18:57;;;;;;;1.08;0.80;;;11.80;99.60;;;;;;5134493;27;20340;-69
2023/10/28 06:21:23;;;;;;;1.63;0.85;;;11.80;99.40;;;;;;5135942;27;20023;-69
2023/10/28 06:23:48;;;;;;;1.88;0.80;;;11.90;99.20;;;;;;5135467;27;20033;-70
2023/10/28 06:26:14;;;;;;;3.05;0.90;;;11.90;98.90;;;;;;5135379;27;20172;-69
2023/10/28 06:28:40;;;;;;;0.88;0.65;;;12.00;98.80;;;;;;5133677;27;20015;-68
2023/10/28 06:31:05;;;;;;;3.20;1.00;;;12.00;98.50;;;;;;5134615;27;20026;-69
2023/10/28 06:33:32;;;;;;;1.67;0.75;;;12.10;98.30;;;;;;5135201;27;20034;-68
2023/10/28 06:35:58;;;;;;;1.23;0.90;;;12.10;98.00;;;;;;5134345;27;20023;-69
2023/10/28 06:38:27;;;;;;;1.02;0.88;;;12.20;97.90;;;;;;5116280;27;20107;-69
2023/10/28 06:40:53;;;;;;;1.10;0.70;;;12.30;97.80;;;;;;5134147;27;20027;-69
2023/10/28 06:43:19;;;;;;;2.47;0.70;;;12.30;97.30;;;;;;5134708;27;20200;-69
2023/10/28 06:45:45;;;;;;;0.65;0.60;;;12.40;96.60;;;;;;5134788;27;20035;-68
2023/10/28 06:48:10;;;;;;;1.42;0.80;;;12.40;96.40;;;;;;5134427;27;20486;-68
2023/10/28 06:50:36;;;;;;;1.60;0.90;;;12.40;96.10;;;;;;5134342;27;20054;-69
2023/10/28 06:53:02;;;;;;;1.23;0.70;;;12.50;96.30;;;;;;5134238;27;20057;-68
2023/10/28 06:55:27;;;;;;;1.27;0.88;;;12.50;96.20;;;;;;5134427;27;20027;-68
2023/10/28 06:57:54;;;;;;;1.40;0.70;;;12.50;96.10;;;;;;5133604;27;20051;-69
2023/10/28 07:00:23;;;;;;;2.53;0.85;;;12.60;96.00;;;;;;5134402;27;20049;-68
2023/10/28 07:02:49;;;;;;;0.85;0.70;;;12.60;96.00;;;;;;5115548;27;20069;-69
2023/10/28 07:05:15;;;;;;;1.27;0.77;;;12.60;95.60;;;;;;5134465;27;20062;-68
2023/10/28 07:07:40;;;;;;;1.60;0.80;;;12.60;95.00;;;;;;5124990;27;20125;-69
2023/10/28 07:10:07;;;;;;;1.58;0.70;;;12.70;94.90;;;;;;5112935;28;20309;-69
2023/10/28 07:12:33;;;;;;;3.05;0.85;;;12.70;94.80;;;;;;5113776;28;20063;-68
2023/10/28 07:14:59;;;;;;;1.40;0.88;;;12.80;94.60;;;;;;5112821;28;20102;-69
2023/10/28 07:17:25;;;;;;;1.90;1.00;;;12.80;94.40;;;;;;5113405;28;20027;-68
2023/10/28 07:19:54;;;;;;;0.80;0.80;;;12.90;93.70;;;;;;5112790;28;20073;-73
2023/10/28 07:22:20;;;;;;;1.23;0.70;;;13.00;92.90;;;;;;5113180;28;20053;-70
2023/10/28 07:24:47;;;;;;;4.75;1.13;;;13.00;92.10;;;;;;5113152;28;20468;-68
2023/10/28 07:27:12;;;;;;;2.25;0.93;;;13.10;91.60;;;;;;5094416;28;20120;-69
2023/10/28 07:29:38;;;;;;;1.83;0.60;;;13.20;91.30;;;;;;5113393;28;20470;-68
2023/10/28 07:32:06;;;;;;;3.13;0.80;;;13.20;91.00;;;;;;5112702;28;20106;-69
2023/10/28 07:34:32;;;;;;;2.13;1.13;;;13.30;90.50;;;;;;5113163;28;20059;-69
2023/10/28 07:37:03;;;;;;;2.80;1.00;;;13.40;89.40;;;;;;5112639;28;20034;-69
2023/10/28 07:39:29;;;;;;;2.35;0.90;;;13.40;89.30;;;;;;5112636;28;20031;-69
2023/10/28 07:41:55;;;;;;;1.02;0.70;;;13.40;88.30;;;;;;5112582;28;20482;-68
2023/10/28 07:44:21;;;;;;;3.00;0.70;;;13.40;87.90;;;;;;5113943;28;20050;-69
2023/10/28 07:46:46;;;;;;;2.95;1.13;;;13.50;87.70;;;;;;5113461;28;20081;-69
2023/10/28 07:49:12;;;;;;;2.60;0.90;;;13.50;87.10;;;;;;5112894;28;20448;-68
2023/10/28 07:51:38;;;;;;;2.42;0.73;;;13.50;86.30;;;;;;5094915;28;20543;-70
2023/10/28 07:54:04;;;;;;;3.22;0.60;;;13.60;85.00;;;;;;5094333;28;20027;-69
2023/10/28 07:56:30;;;;;;;2.00;0.73;;;13.60;84.90;;;;;;5112786;28;20023;-69
2023/10/28 07:58:59;;;;;;;5.90;0.85;;;13.60;84.40;;;;;;5112576;28;20430;-68
2023/10/28 08:01:29;;;;;;;2.53;0.70;;;13.60;84.70;;;;;;5113073;28;20031;-69
2023/10/28 08:03:55;;;;;;;3.00;0.77;;;13.60;84.30;;;;;;5112543;28;20031;-68
2023/10/28 08:06:21;;;;;;;1.08;0.70;;;13.60;83.60;;;;;;5112916;28;20060;-68
2023/10/28 08:08:47;;;;;;;1.65;0.90;;;13.70;83.00;;;;;;5112808;28;20027;-68
2023/10/28 08:11:13;;;;;;;1.98;0.75;;;13.70;82.50;;;;;;5118455;28;20087;-68
2023/10/28 08:13:40;;;;;;;3.95;0.90;;;13.70;82.50;;;;;;5133426;28;20080;-69
2023/10/28 08:16:09;;;;;;;3.70;0.90;;;13.70;82.20;;;;;;5132606;28;20019;-68
2023/10/28 08:18:35;;;;;;;4.32;0.95;;;13.70;81.60;;;;;;5133459;28;20053;-68
2023/10/28 08:21:01;;;;;;;2.15;1.50;;;13.70;81.40;;;;;;5132951;28;20050;-69
2023/10/28 08:23:30;;;;;;;3.00;0.90;;;13.80;81.10;;;;;;5133347;28;20444;-70
2023/10/28 08:25:59;;;;;;;1.35;0.90;;;13.80;81.40;;;;;;5132763;28;20054;-69
2023/10/28 08:28:26;;;;;;;1.77;0.90;;;13.80;81.10;;;;;;5133419;28;20030;-69
2023/10/28 08:30:52;;;;;;;1.83;1.00;;;13.90;80.90;;;;;;5133091;28;20019;-68
2023/10/28 08:33:20;;;;;;;1.67;0.88;;;13.90;81.00;;;;;;5132790;28;20525;-69
2023/10/28 08:35:51;;;;;;;3.58;1.10;;;13.90;81.00;;;;;;5133095;28;20483;-69
2023/10/28 08:38:17;;;;;;;2.28;0.80;;;13.90;79.70;;;;;;5132683;28;20038;-69
2023/10/28 08:40:46;;;;;;;5.50;1.20;;;14.00;79.60;;;;;;5133502;28;20073;-68
2023/10/28 08:43:14;;;;;;;2.65;0.88;;;14.00;79.30;;;;;;5132655;28;20027;-70
2023/10/28 08:45:42;;;;;;;1.85;0.70;;;14.10;79.00;;;;;;5133189;28;20039;-69
2023/10/28 08:48:10;;;;;;;4.85;1.05;;;14.10;79.00;;;;;;5132736;28;20023;-69
2023/10/28 08:50:39;;;;;;;2.38;0.90;;;14.10;78.80;;;;;;5133086;27;20047;-69
2023/10/28 08:53:08;;;;;;;1.52;0.82;;;14.20;79.10;;;;;;5136450;27;20031;-69
2023/10/28 08:55:36;;;;;;;2.20;1.00;;;14.20;78.60;;;;;;5137161;27;20027;-69
2023/10/28 08:58:03;;;;;;;3.53;0.85;;;14.30;78.80;;;;;;5136612;27;20051;-69
2023/10/28 09:00:30;;;;;;;2.42;1.00;;;14.30;77.30;;;;;;5136777;27;20059;-69
2023/10/28 09:02:56;;;;;;;3.65;1.10;;;14.40;77.00;;;;;;5136354;27;20493;-72
2023/10/28 09:05:22;;;;;;;3.80;1.05;;;14.40;76.40;;;;;;5137174;27;20524;-69
2023/10/28 09:07:48;;;;;;;1.73;0.80;;;14.40;76.40;;;;;;5137420;27;20023;-69
2023/10/28 09:10:14;;;;;;;3.65;0.93;;;14.50;76.60;;;;;;5117898;27;20034;-68
2023/10/28 09:12:40;;;;;;;1.67;0.90;;;14.50;76.60;;;;;;5136922;27;20023;-73
2023/10/28 09:15:08;;;;;;;2.80;1.00;;;14.50;75.90;;;;;;5137012;27;20026;-72
2023/10/28 09:17:34;;;;;;;2.45;1.05;;;14.60;75.20;;;;;;5129193;27;20038;-69
2023/10/28 09:20:00;;;;;;;3.40;1.02;;;14.60;74.60;;;;;;5115787;28;20513;-68
2023/10/28 09:22:26;;;;;;;5.30;1.38;;;14.60;74.60;;;;;;5117247;28;20035;-69
2023/10/28 09:24:55;;;;;;;2.30;1.10;;;14.60;74.80;;;;;;5136406;27;20069;-68
2023/10/28 09:27:21;;;;;;;3.10;1.23;;;14.70;74.50;;;;;;5135623;27;20030;-68
2023/10/28 09:29:47;;;;;;;2.45;1.10;;;14.70;74.80;;;;;;5136134;27;20483;-68
2023/10/28 09:32:13;;;;;;;4.35;1.40;;;14.60;74.80;;;;;;5136119;27;20035;-68
2023/10/28 09:34:40;;;;;;;4.03;1.30;;;14.70;74.80;;;;;;5136331;27;20029;-67
2023/10/28 09:37:07;;;;;;;2.85;1.00;;;14.70;74.60;;;;;;5135726;27;20027;-68
2023/10/28 09:39:33;;;;;;;3.63;1.20;;;14.70;75.00;;;;;;5117729;27;20026;-68
2023/10/28 09:42:00;;;;;;;2.13;1.00;;;14.70;74.60;;;;;;5135592;27;20027;-74
2023/10/28 09:44:27;;;;;;;5.03;1.23;;;14.70;74.30;;;;;;5136214;27;20406;-68
2023/10/28 09:47:00;;;;;;;2.25;0.85;;;14.80;74.70;;;;;;5136315;27;20027;-68
2023/10/28 09:49:29;;;;;;;3.38;1.20;;;14.80;74.20;;;;;;5136349;27;20022;-68
2023/10/28 09:52:00;;;;;;;2.15;1.10;;;14.90;74.20;;;;;;5135934;27;20050;-68
2023/10/28 09:54:29;;;;;;;2.85;0.70;;;14.90;73.40;;;;;;5136279;27;20072;-67
2023/10/28 09:56:59;;;;;;;2.53;1.00;;;15.00;73.20;;;;;;5135855;27;20054;-69
2023/10/28 09:59:27;;;;;;;2.25;0.93;;;15.20;73.90;;;;;;5136150;27;20023;-69
2023/10/28 10:02:13;;;;;;;2.33;1.00;;;15.30;73.60;;;;;;5135170;27;20030;-69
2023/10/28 10:04:59;;;;;;;3.22;1.00;;;15.60;73.60;;;;;;5135814;27;20035;-68
2023/10/28 10:07:25;;;;;;;3.78;1.08;;;15.80;73.50;;;;;;5135001;27;20110;-67
2023/10/28 10:09:51;;;;;;;3.85;1.05;;;16.00;71.70;;;;;;5134871;27;20400;-68
2023/10/28 10:12:17;;;;;;;3.40;1.00;;;16.20;72.20;;;;;;5134708;27;20066;-69
2023/10/28 10:14:47;;;;;;;1.88;0.90;;;16.40;70.50;;;;;;5135056;27;20039;-68
2023/10/28 10:17:34;;;;;;;4.60;1.30;;;16.60;69.30;;;;;;5134441;27;20111;-70
2023/10/28 10:20:04;;;;;;;2.03;1.10;;;16.80;68.40;;;;;;5134814;27;20372;-69
2023/10/28 10:22:31;;;;;;;1.75;0.70;;;16.90;67.30;;;;;;5135167;27;20083;-69
2023/10/28 10:24:57;;;;;;;2.20;1.00;;;17.10;67.00;;;;;;5135479;27;20034;-68
2023/10/28 10:27:44;;;;;;;2.00;1.00;;;17.30;66.60;;;;;;5134504;27;20026;-69
2023/10/28 10:30:10;;;;;;;1.55;0.93;;;17.40;65.60;;;;;;5134763;27;20031;-69
2023/10/28 10:32:41;;;;;;;2.67;1.05;;;17.60;65.80;;;;;;5135144;27;20337;-68
2023/10/28 10:35:11;;;;;;;2.28;0.98;;;17.70;64.50;;;;;;5134564;27;20023;-70
2023/10/28 10:37:36;;;;;;;2.67;1.25;;;17.80;64.00;;;;;;5135323;27;20413;-68
2023/10/28 10:40:09;;;;;;;2.17;0.60;;;17.90;62.90;;;;;;5134945;27;20023;-67
2023/10/28 10:42:36;;;;;;;1.63;0.80;;;17.90;61.80;;;;;;5116469;27;20211;-68
2023/10/28 10:45:03;;;;;;;3.40;1.30;;;17.90;61.90;;;;;;5134826;27;20456;-69
2023/10/28 10:47:29;;;;;;;3.17;1.08;;;17.80;61.30;;;;;;5134548;27;20026;-69
2023/10/28 10:49:56;;;;;;;3.33;1.00;;;17.80;61.70;;;;;;5134642;27;20030;-69
2023/10/28 10:52:23;;;;;;;3.45;0.90;;;17.80;62.40;;;;;;5115644;27;20061;-67
2023/10/28 10:54:48;;;;;;;2.58;1.20;;;17.70;61.30;;;;;;5134624;27;20111;-68
2023/10/28 10:57:14;;;;;;;4.28;1.70;;;17.70;62.10;;;;;;5115313;27;20501;-68
2023/10/28 10:59:40;;;;;;;3.28;1.17;;;17.60;61.50;;;;;;5134676;27;20031;-67
2023/10/28 11:02:06;;;;;;;2.90;1.38;;;17.60;62.50;;;;;;5134271;27;20046;-68
2023/10/28 11:04:34;;;;;;;2.72;1.50;;;17.70;62.00;;;;;;5134903;27;20027;-67
2023/10/28 11:07:02;;;;;;;1.48;0.98;;;17.80;62.50;;;;;;5116216;27;20163;-69
2023/10/28 11:09:28;;;;;;;2.63;1.30;;;18.00;62.90;;;;;;5134214;27;20027;-69
2023/10/28 11:11:54;;;;;;;4.28;0.93;;;18.10;61.50;;;;;;5134251;27;20113;-69
2023/10/28 11:14:20;;;;;;;2.88;1.17;;;18.20;60.80;;;;;;5133119;27;20436;-69
2023/10/28 11:16:46;;;;;;;1.95;1.23;;;18.40;60.80;;;;;;5134640;27;20103;-69
2023/10/28 11:19:12;;;;;;;2.53;1.05;;;18.50;60.10;;;;;;5133822;27;20110;-69
2023/10/28 11:21:41;;;;;;;2.83;0.85;;;18.60;59.10;;;;;;5134603;27;20065;-69
2023/10/28 11:24:09;;;;;;;2.17;0.90;;;18.80;58.70;;;;;;5133843;27;20352;-71
2023/10/28 11:26:36;;;;;;;1.60;0.82;;;18.80;58.30;;;;;;5133311;27;20035;-68
2023/10/28 11:29:02;;;;;;;3.08;0.90;;;18.90;57.90;;;;;;5131937;27;20027;-68
2023/10/28 11:31:29;;;;;;;1.75;0.60;;;19.00;57.00;;;;;;5133123;27;20156;-68
2023/10/28 11:34:00;;;;;;;3.33;0.77;;;19.10;56.50;;;;;;5134514;27;20080;-69
2023/10/28 11:36:26;;;;;;;4.10;1.23;;;19.20;57.10;;;;;;5115473;27;20030;-69
2023/10/28 11:38:55;;;;;;;1.48;0.65;;;19.30;56.70;;;;;;5134086;27;20096;-69
2023/10/28 11:41:21;;;;;;;3.17;1.10;;;19.30;55.80;;;;;;5133644;27;20030;-69
2023/10/28 11:43:51;;;;;;;2.47;1.00;;;19.40;55.80;;;;;;5133746;27;20027;-69
2023/10/28 11:46:16;;;;;;;1.42;0.70;;;19.40;55.20;;;;;;5133671;27;20027;-68
2023/10/28 11:48:45;;;;;;;2.90;1.00;;;19.40;55.30;;;;;;5133611;27;20064;-68
2023/10/28 11:51:12;;;;;;;4.07;0.98;;;19.50;55.20;;;;;;5133681;27;20467;-67
2023/10/28 11:53:44;;;;;;;2.97;1.10;;;19.50;54.60;;;;;;5133795;27;20089;-67
2023/10/28 11:56:10;;;;;;;3.05;0.80;;;19.50;53.80;;;;;;5133898;27;20030;-70
2023/10/28 11:58:36;;;;;;;2.28;0.85;;;19.50;53.60;;;;;;5133581;27;20047;-69
2023/10/28 12:01:01;;;;;;;1.02;0.57;;;19.50;52.90;;;;;;5133873;27;20019;-69
2023/10/28 12:03:27;;;;;;;1.20;0.80;;;19.40;52.70;;;;;;5133222;27;20103;-69
2023/10/28 12:05:53;;;;;;;2.85;1.30;;;19.40;52.80;;;;;;5133462;28;20061;-69
2023/10/28 12:08:19;;;;;;;2.85;1.10;;;19.40;53.20;;;;;;5132860;28;20027;-70
2023/10/28 12:10:45;;;;;;;0.68;0.52;;;19.40;53.60;;;;;;5133462;28;20377;-69
2023/10/28 12:13:11;;;;;;;1.52;0.70;;;19.40;53.50;;;;;;5133094;28;20063;-71
2023/10/28 12:15:38;;;;;;;2.80;0.60;;;19.50;53.00;;;;;;5133657;28;20020;-69
2023/10/28 12:18:03;;;;;;;4.03;0.77;;;19.50;52.80;;;;;;5132797;28;20023;-70
2023/10/28 12:20:29;;;;;;;1.70;0.65;;;19.50;53.30;;;;;;5132695;28;20372;-70
2023/10/28 12:22:56;;;;;;;1.63;0.60;;;19.50;52.90;;;;;;5133109;28;20027;-69
2023/10/28 12:25:23;;;;;;;3.08;0.70;;;19.50;52.40;;;;;;5133910;27;20031;-69
2023/10/28 12:27:50;;;;;;;4.35;0.90;;;19.40;52.10;;;;;;5137487;27;20084;-68
2023/10/28 12:30:16;;;;;;;1.83;0.52;;;19.40;52.90;;;;;;5137007;27;20031;-69
2023/10/28 12:32:42;;;;;;;1.65;0.77;;;19.40;52.90;;;;;;5137010;27;20479;-69
2023/10/28 12:35:08;;;;;;;2.80;0.75;;;19.30;53.80;;;;;;5137325;27;20093;-70
2023/10/28 12:37:33;;;;;;;2.40;0.95;;;19.30;53.40;;;;;;5137002;27;20035;-69
2023/10/28 12:39:59;;;;;;;1.77;0.90;;;19.20;53.10;;;;;;5137370;27;20019;-69
2023/10/28 12:42:25;;;;;;;3.08;0.73;;;19.10;52.40;;;;;;5136434;27;20039;-68
2023/10/28 12:44:51;;;;;;;1.95;0.52;;;19.10;52.10;;;;;;5136575;27;20095;-70